createdAt,value
2023-06-09T00:00:38.891Z,33.44
2023-06-09T00:03:44.864Z,33.25
2023-06-09T00:06:47.349Z,33.41
2023-06-09T00:09:44.200Z,33.34
2023-06-09T00:12:44.775Z,33.47
2023-06-09T00:15:48.452Z,33.48
2023-06-09T00:18:54.600Z,33.21
2023-06-09T00:21:58.682Z,33.28
2023-06-09T00:24:59.707Z,33.24
2023-06-09T00:28:00.694Z,33.32
2023-06-09T00:31:02.927Z,33.29
2023-06-09T00:34:03.888Z,33.20
2023-06-09T00:37:04.717Z,33.33
2023-06-09T00:40:06.045Z,33.53
2023-06-09T00:43:07.732Z,33.32
2023-06-09T00:46:08.735Z,33.57
2023-06-09T00:49:11.935Z,33.36
2023-06-09T00:52:12.815Z,33.33
2023-06-09T00:55:16.447Z,33.44
2023-06-09T00:58:18.705Z,33.18
2023-06-09T01:01:20.077Z,33.06
2023-06-09T01:04:22.805Z,33.24
2023-06-09T01:07:28.698Z,33.11
2023-06-09T01:10:32.693Z,33.27
2023-06-09T01:13:42.720Z,33.19
2023-06-09T01:16:54.016Z,33.25
2023-06-09T01:19:58.747Z,33.00
2023-06-09T01:23:04.792Z,33.07
2023-06-09T01:26:05.684Z,33.24
2023-06-09T01:29:10.821Z,32.99
2023-06-09T01:32:21.071Z,33.07
2023-06-09T01:35:21.782Z,33.06
2023-06-09T01:38:22.986Z,32.96
2023-06-09T01:41:23.697Z,33.20
2023-06-09T01:44:24.893Z,32.98
2023-06-09T01:47:27.855Z,33.22
2023-06-09T01:50:33.744Z,32.96
2023-06-09T01:53:46.694Z,33.11
2023-06-09T01:56:52.698Z,33.13
2023-06-09T02:00:01.836Z,33.01
2023-06-09T02:03:11.927Z,33.10
2023-06-09T02:06:13.855Z,32.97
2023-06-09T02:09:14.749Z,33.07
2023-06-09T02:12:15.786Z,33.02
2023-06-09T02:15:17.688Z,32.98
2023-06-09T02:18:19.767Z,32.84
2023-06-09T02:21:13.703Z,32.91
2023-06-09T02:24:14.784Z,32.82
2023-06-09T02:27:15.711Z,32.71
2023-06-09T02:30:16.699Z,32.97
2023-06-09T02:33:18.791Z,32.97
2023-06-09T02:36:45.977Z,32.77
2023-06-09T02:39:50.722Z,33.01
2023-06-09T02:42:45.673Z,32.63
2023-06-09T02:45:46.733Z,32.95
2023-06-09T02:48:47.732Z,33.04
2023-06-09T02:51:49.266Z,32.85
2023-06-09T02:54:52.018Z,33.07
2023-06-09T02:57:52.825Z,33.12
2023-06-09T03:00:57.815Z,33.09
2023-06-09T03:03:58.766Z,32.82
2023-06-09T03:07:01.827Z,32.95
2023-06-09T03:10:02.726Z,32.91
2023-06-09T03:13:32.925Z,32.95
2023-06-09T03:16:35.845Z,32.63
2023-06-09T03:19:37.012Z,33.04
2023-06-09T03:22:37.748Z,33.25
2023-06-09T03:25:38.757Z,33.02
2023-06-09T03:28:43.980Z,32.82
2023-06-09T03:31:44.787Z,32.68
2023-06-09T03:34:49.230Z,33.01
2023-06-09T03:37:43.860Z,33.06
2023-06-09T03:40:37.685Z,32.43
2023-06-09T03:43:41.794Z,32.60
2023-06-09T03:47:10.798Z,32.63
2023-06-09T03:50:11.758Z,32.87
2023-06-09T03:53:12.693Z,32.77
2023-06-09T03:56:15.776Z,32.86
2023-06-09T03:59:16.705Z,32.74
2023-06-09T04:02:21.220Z,33.12
2023-06-09T04:05:33.447Z,33.17
2023-06-09T04:08:41.736Z,33.14
2023-06-09T04:11:42.733Z,32.84
2023-06-09T04:14:44.754Z,33.05
2023-06-09T04:17:45.740Z,33.12
2023-06-09T04:20:51.773Z,32.94
2023-06-09T04:23:53.746Z,32.83
2023-06-09T04:26:55.728Z,33.01
2023-06-09T04:29:57.643Z,32.83
2023-06-09T04:33:00.726Z,33.10
2023-06-09T04:36:02.661Z,33.00
2023-06-09T04:39:03.767Z,32.90
2023-06-09T04:42:04.649Z,33.08
2023-06-09T04:45:05.688Z,32.91
2023-06-09T04:48:07.695Z,33.10
2023-06-09T04:51:08.665Z,33.18
2023-06-09T04:54:14.704Z,32.94
2023-06-09T04:57:13.695Z,33.13
2023-06-09T05:00:21.872Z,33.02
2023-06-09T05:03:32.040Z,32.92
2023-06-09T05:06:32.682Z,32.85
2023-06-09T05:09:33.887Z,32.95
2023-06-09T05:12:34.748Z,33.18
2023-06-09T05:15:35.627Z,33.00
2023-06-09T05:18:38.808Z,33.14
2023-06-09T05:21:39.966Z,33.25
2023-06-09T05:25:05.994Z,33.32
2023-06-09T05:28:07.017Z,33.02
2023-06-09T05:31:07.780Z,33.07
2023-06-09T05:34:08.681Z,33.14
2023-06-09T05:37:11.693Z,33.10
2023-06-09T05:40:12.669Z,33.26
2023-06-09T05:43:13.649Z,33.14
2023-06-09T05:46:14.917Z,33.05
2023-06-09T05:49:15.713Z,32.83
2023-06-09T05:52:16.758Z,33.25
2023-06-09T05:55:17.763Z,32.90
2023-06-09T05:58:19.703Z,33.06
2023-06-09T06:01:49.711Z,33.04
2023-06-09T06:04:50.783Z,33.23
2023-06-09T06:07:51.671Z,33.14
2023-06-09T06:10:45.725Z,33.09
2023-06-09T06:13:46.656Z,33.35
2023-06-09T06:16:47.670Z,33.20
2023-06-09T06:19:48.660Z,33.12
2023-06-09T06:22:50.703Z,33.27
2023-06-09T06:25:51.848Z,33.18
2023-06-09T06:28:53.686Z,33.09
2023-06-09T06:31:56.737Z,33.47
2023-06-09T06:34:57.843Z,33.67
2023-06-09T06:37:58.717Z,33.10
2023-06-09T06:40:52.893Z,33.41
2023-06-09T06:43:46.742Z,33.35
2023-06-09T06:46:47.728Z,33.18
2023-06-09T06:49:48.704Z,33.50
2023-06-09T06:52:49.827Z,33.65
2023-06-09T06:55:50.677Z,33.46
2023-06-09T06:58:51.637Z,33.60
2023-06-09T07:01:53.695Z,33.52
2023-06-09T07:04:55.040Z,33.55
2023-06-09T07:07:55.656Z,33.89
2023-06-09T07:10:56.820Z,34.08
2023-06-09T07:13:59.620Z,33.95
2023-06-09T07:17:00.661Z,34.06
2023-06-09T07:20:01.707Z,34.14
2023-06-09T07:22:58.682Z,34.16
2023-06-09T07:26:01.690Z,33.80
2023-06-09T07:29:02.709Z,34.14
2023-06-09T07:32:06.714Z,33.85
2023-06-09T07:35:07.678Z,33.99
2023-06-09T07:38:09.702Z,34.18
2023-06-09T07:41:10.584Z,33.51
2023-06-09T07:44:11.608Z,34.10
2023-06-09T07:47:12.962Z,34.28
2023-06-09T07:50:14.657Z,33.94
2023-06-09T07:53:15.587Z,34.35
2023-06-09T07:56:16.709Z,34.23
2023-06-09T07:59:17.641Z,34.09
2023-06-09T08:02:20.589Z,33.72
2023-06-09T08:05:21.696Z,33.82
2023-06-09T08:08:22.681Z,33.84
2023-06-09T08:11:23.591Z,33.90
2023-06-09T08:14:25.703Z,33.93
2023-06-09T08:17:26.639Z,34.31
2023-06-09T08:20:27.637Z,34.41
2023-06-09T08:23:31.703Z,34.35
2023-06-09T08:26:32.693Z,34.05
2023-06-09T08:29:33.795Z,34.16
2023-06-09T08:32:34.980Z,34.41
2023-06-09T08:35:35.720Z,34.10
2023-06-09T08:38:36.756Z,34.10
2023-06-09T08:41:40.639Z,34.09
2023-06-09T08:44:42.651Z,34.50
2023-06-09T08:47:43.836Z,34.45
2023-06-09T08:50:48.681Z,34.10
2023-06-09T08:53:49.672Z,34.24
2023-06-09T08:56:50.633Z,34.48
2023-06-09T08:59:52.648Z,34.40
2023-06-09T09:02:53.636Z,34.21
2023-06-09T09:05:54.604Z,34.04
2023-06-09T09:08:55.586Z,34.35
2023-06-09T09:11:58.613Z,34.05
2023-06-09T09:14:59.624Z,34.10
2023-06-09T09:18:00.694Z,33.83
2023-06-09T09:21:02.753Z,34.00
2023-06-09T09:24:13.835Z,33.70
2023-06-09T09:27:28.715Z,34.16
2023-06-09T09:30:29.636Z,34.17
2023-06-09T09:33:37.523Z,33.99
2023-06-09T09:36:38.680Z,34.18
2023-06-09T09:39:39.619Z,33.66
2023-06-09T09:42:41.630Z,33.72
2023-06-09T09:45:46.237Z,33.88
2023-06-09T09:48:47.617Z,33.99
2023-06-09T09:51:48.606Z,34.03
2023-06-09T09:54:50.566Z,34.07
2023-06-09T09:57:52.579Z,34.08
2023-06-09T10:00:55.676Z,33.97
2023-06-09T10:03:57.982Z,33.91
2023-06-09T10:06:58.707Z,33.78
2023-06-09T10:10:02.647Z,33.49
2023-06-09T10:13:07.532Z,33.66
2023-06-09T10:16:35.422Z,33.72
2023-06-09T10:19:37.619Z,33.73
2023-06-09T10:22:39.914Z,33.59
2023-06-09T10:25:41.612Z,33.28
2023-06-09T10:28:42.612Z,33.24
2023-06-09T10:31:54.809Z,33.27
2023-06-09T10:35:29.217Z,33.22
2023-06-09T10:38:32.639Z,33.88
2023-06-09T10:41:34.632Z,33.77
2023-06-09T10:44:37.572Z,33.88
2023-06-09T10:48:01.942Z,34.07
2023-06-09T10:50:48.651Z,33.36
2023-06-09T10:53:49.671Z,33.52
2023-06-09T10:56:55.655Z,33.44
2023-06-09T11:00:04.751Z,33.21
2023-06-09T11:03:06.632Z,33.33
2023-06-09T11:06:13.606Z,33.58
2023-06-09T11:09:16.619Z,33.85
2023-06-09T11:12:30.407Z,33.95
2023-06-09T11:15:34.446Z,33.44
2023-06-09T11:18:35.802Z,33.48
2023-06-09T11:21:37.619Z,33.55
2023-06-09T11:24:40.596Z,33.75
2023-06-09T11:27:41.576Z,33.47
2023-06-09T11:30:43.578Z,33.35
2023-06-09T11:33:56.633Z,33.37
2023-06-09T11:37:00.617Z,33.60
2023-06-09T11:40:01.597Z,33.80
2023-06-09T11:43:02.626Z,33.60
2023-06-09T11:46:03.643Z,33.44
2023-06-09T11:49:10.656Z,33.38
2023-06-09T11:52:14.614Z,33.72
2023-06-09T11:55:16.580Z,33.54
2023-06-09T11:58:11.568Z,33.61
2023-06-09T12:01:12.572Z,33.55
2023-06-09T12:04:06.743Z,33.12
2023-06-09T12:07:07.656Z,33.06
2023-06-09T12:10:08.810Z,33.70
2023-06-09T12:13:13.631Z,33.83
2023-06-09T12:16:14.559Z,33.68
2023-06-09T12:19:15.634Z,33.90
2023-06-09T12:22:34.727Z,33.79
2023-06-09T12:25:32.606Z,33.72
2023-06-09T12:28:35.607Z,33.85
2023-06-09T12:31:36.637Z,33.67
2023-06-09T12:34:38.573Z,33.65
2023-06-09T12:37:41.565Z,33.82
2023-06-09T12:41:07.563Z,33.79
2023-06-09T12:44:11.552Z,33.71
2023-06-09T12:47:12.637Z,33.85
2023-06-09T12:50:13.592Z,33.76
2023-06-09T12:53:14.580Z,33.94
2023-06-09T12:56:15.629Z,33.78
2023-06-09T12:59:16.557Z,33.48
2023-06-09T13:02:17.582Z,33.55
2023-06-09T13:05:18.594Z,33.48
2023-06-09T13:08:22.596Z,33.55
2023-06-09T13:11:24.594Z,33.61
2023-06-09T13:14:25.577Z,33.87
2023-06-09T13:17:51.643Z,33.98
2023-06-09T13:20:52.618Z,33.59
2023-06-09T13:23:53.604Z,33.99
2023-06-09T13:26:55.566Z,33.80
2023-06-09T13:29:56.542Z,33.66
2023-06-09T13:32:57.583Z,33.51
2023-06-09T13:36:05.035Z,33.61
2023-06-09T13:39:05.559Z,33.24
2023-06-09T13:42:06.579Z,33.55
2023-06-09T13:45:07.784Z,33.97
2023-06-09T13:48:08.619Z,33.40
2023-06-09T13:51:09.576Z,33.87
2023-06-09T13:54:10.523Z,33.72
2023-06-09T13:57:11.688Z,33.83
2023-06-09T14:00:12.599Z,33.93
2023-06-09T14:03:13.699Z,33.63
2023-06-09T14:06:14.540Z,33.44
2023-06-09T14:09:15.568Z,33.18
2023-06-09T14:12:16.563Z,33.26
2023-06-09T14:18:29.603Z,33.55
2023-06-09T14:21:30.645Z,33.61
2023-06-09T14:24:32.550Z,33.33
2023-06-09T14:27:33.611Z,33.72
2023-06-09T14:30:34.568Z,34.01
2023-06-09T14:33:35.572Z,33.97
2023-06-09T14:36:36.551Z,33.39
2023-06-09T14:39:37.629Z,33.74
2023-06-09T14:42:38.738Z,33.49
2023-06-09T14:45:39.610Z,33.56
2023-06-09T14:48:40.581Z,33.45
2023-06-09T14:51:34.569Z,33.57
2023-06-09T14:54:35.553Z,33.68
2023-06-09T14:57:54.798Z,33.49
2023-06-09T15:00:41.547Z,33.68
2023-06-09T15:03:42.594Z,33.83
2023-06-09T15:06:43.741Z,34.03
2023-06-09T15:09:44.543Z,34.17
2023-06-09T15:12:50.894Z,34.20
2023-06-09T15:15:52.639Z,34.21
2023-06-09T15:18:53.548Z,34.51
2023-06-09T15:22:04.325Z,34.35
2023-06-09T15:25:21.593Z,34.92
2023-06-09T15:28:28.619Z,35.16
2023-06-09T15:31:29.595Z,35.25
2023-06-09T15:34:30.572Z,35.52
2023-06-09T15:37:35.575Z,35.42
2023-06-09T15:40:37.508Z,35.27
2023-06-09T15:43:44.616Z,35.86
2023-06-09T15:46:38.812Z,36.37
2023-06-09T15:49:33.531Z,36.05
2023-06-09T15:52:35.528Z,35.09
2023-06-09T15:55:37.590Z,36.29
2023-06-09T15:58:38.539Z,36.15
2023-06-09T16:01:39.792Z,36.07
2023-06-09T16:04:42.520Z,35.64
2023-06-09T16:07:43.542Z,35.88
2023-06-09T16:10:44.513Z,36.00
2023-06-09T16:13:45.643Z,36.18
2023-06-09T16:16:46.978Z,36.27
2023-06-09T16:19:49.627Z,36.28
2023-06-09T16:22:50.524Z,36.37
2023-06-09T16:25:51.549Z,36.49
2023-06-09T16:28:52.611Z,36.04
2023-06-09T16:31:53.548Z,36.12
2023-06-09T16:34:54.576Z,35.93
2023-06-09T16:37:56.521Z,35.96
2023-06-09T16:40:58.577Z,36.75
2023-06-09T16:43:59.560Z,36.58
2023-06-09T16:47:00.589Z,36.76
2023-06-09T16:50:02.734Z,36.77
2023-06-09T16:53:04.642Z,36.91
2023-06-09T16:56:05.556Z,36.76
2023-06-09T16:59:06.536Z,36.87
2023-06-09T17:02:07.688Z,37.25
2023-06-09T17:05:08.833Z,36.98
2023-06-09T17:08:09.593Z,37.13
2023-06-09T17:11:10.554Z,37.13
2023-06-09T17:14:11.560Z,36.86
2023-06-09T17:17:12.561Z,37.16
2023-06-09T17:20:13.596Z,37.00
2023-06-09T17:23:15.740Z,37.17
2023-06-09T17:26:20.948Z,37.34
2023-06-09T17:29:24.543Z,37.36
2023-06-09T17:32:51.572Z,37.39
2023-06-09T17:35:52.794Z,37.01
2023-06-09T17:38:53.598Z,37.38
2023-06-09T17:41:54.553Z,37.73
2023-06-09T17:44:55.557Z,37.05
2023-06-09T17:47:56.626Z,37.16
2023-06-09T17:51:17.776Z,36.92
2023-06-09T17:54:04.606Z,37.34
2023-06-09T17:57:07.285Z,37.11
2023-06-09T18:00:08.560Z,37.70
2023-06-09T18:03:09.565Z,37.56
2023-06-09T18:06:12.698Z,37.33
2023-06-09T18:09:13.549Z,37.28
2023-06-09T18:12:19.609Z,37.59
2023-06-09T18:15:20.532Z,37.63
2023-06-09T18:18:21.539Z,37.93
2023-06-09T18:21:15.573Z,37.62
2023-06-09T18:24:16.799Z,37.44
2023-06-09T18:27:18.660Z,37.32
2023-06-09T18:30:19.567Z,37.40
2023-06-09T18:33:20.528Z,37.58
2023-06-09T18:36:21.536Z,37.50
2023-06-09T18:39:23.561Z,37.38
2023-06-09T18:42:24.527Z,37.87
2023-06-09T18:45:26.514Z,37.27
2023-06-09T18:49:01.268Z,37.51
2023-06-09T18:52:02.535Z,37.38
2023-06-09T18:55:03.558Z,36.93
2023-06-09T18:58:04.534Z,37.33
2023-06-09T19:01:05.527Z,37.11
2023-06-09T19:04:06.603Z,37.24
2023-06-09T19:07:07.515Z,37.01
2023-06-09T19:10:01.510Z,37.07
2023-06-09T19:13:02.512Z,36.75
2023-06-09T19:16:04.540Z,37.17
2023-06-09T19:19:05.691Z,36.70
2023-06-09T19:22:06.511Z,37.06
2023-06-09T19:25:07.688Z,37.01
2023-06-09T19:28:08.573Z,36.94
2023-06-09T19:31:09.600Z,36.53
2023-06-09T19:34:10.548Z,36.55
2023-06-09T19:37:12.640Z,36.68
2023-06-09T19:40:13.553Z,36.63
2023-06-09T19:43:14.526Z,36.50
2023-06-09T19:46:15.773Z,36.44
2023-06-09T19:49:21.111Z,36.19
2023-06-09T19:52:24.838Z,36.32
2023-06-09T19:55:26.673Z,36.48
2023-06-09T19:58:27.473Z,36.48
2023-06-09T20:01:28.581Z,36.21
2023-06-09T20:04:29.647Z,36.32
2023-06-09T20:07:30.481Z,36.26
2023-06-09T20:10:31.495Z,36.35
2023-06-09T20:13:32.490Z,36.24
2023-06-09T20:16:36.759Z,35.90
2023-06-09T20:19:38.515Z,36.31
2023-06-09T20:22:39.519Z,36.17
2023-06-09T20:25:40.483Z,35.95
2023-06-09T20:28:41.541Z,36.07
2023-06-09T20:31:44.613Z,35.93
2023-06-09T20:34:45.546Z,35.86
2023-06-09T20:37:48.623Z,36.01
2023-06-09T20:40:49.640Z,35.77
2023-06-09T20:43:51.553Z,35.89
2023-06-09T20:46:52.528Z,35.69
2023-06-09T20:49:54.080Z,35.57
2023-06-09T20:52:54.894Z,35.65
2023-06-09T20:55:58.493Z,35.64
2023-06-09T20:59:00.485Z,35.66
2023-06-09T21:02:02.576Z,35.52
2023-06-09T21:08:28.585Z,35.43
2023-06-09T21:11:29.550Z,35.31
2023-06-09T21:14:23.478Z,35.35
2023-06-09T21:17:25.629Z,35.18
2023-06-09T21:20:27.564Z,35.49
2023-06-09T21:23:28.570Z,35.24
2023-06-09T21:26:47.708Z,35.07
2023-06-09T21:33:00.776Z,35.17
2023-06-09T21:36:01.633Z,35.12
2023-06-09T21:39:02.678Z,34.97
2023-06-09T21:42:03.608Z,35.02
2023-06-09T21:45:06.981Z,35.06
2023-06-09T21:48:07.657Z,34.92
2023-06-09T21:51:12.666Z,35.04
2023-06-09T21:54:18.334Z,35.26
2023-06-09T21:57:22.609Z,35.16
2023-06-09T22:00:23.563Z,35.23
2023-06-09T22:03:24.616Z,35.07
2023-06-09T22:06:27.023Z,35.23
2023-06-09T22:09:43.403Z,35.04
2023-06-09T22:17:00.657Z,34.98
2023-06-09T22:20:01.553Z,35.30
2023-06-09T22:23:02.511Z,35.22
2023-06-09T22:26:03.516Z,35.14
2023-06-09T22:29:04.506Z,35.31
2023-06-09T22:32:05.486Z,35.37
2023-06-09T22:35:06.663Z,35.03
2023-06-09T22:38:08.667Z,34.56
2023-06-09T22:41:03.474Z,34.82
2023-06-09T22:44:05.488Z,34.83
2023-06-09T22:47:06.468Z,34.71
2023-06-09T22:50:17.453Z,34.79
2023-06-09T22:53:15.027Z,34.96
2023-06-09T22:56:08.467Z,34.99
2023-06-09T22:59:10.468Z,35.06
2023-06-09T23:02:14.101Z,34.93
2023-06-09T23:05:18.476Z,35.05
2023-06-09T23:08:23.522Z,35.01
2023-06-09T23:11:25.788Z,35.26
2023-06-09T23:14:27.484Z,35.32
2023-06-09T23:17:28.541Z,35.14
2023-06-09T23:20:29.463Z,35.38
2023-06-09T23:23:30.494Z,35.23
2023-06-09T23:26:31.599Z,35.21
2023-06-09T23:29:32.486Z,35.15
2023-06-09T23:32:33.877Z,34.92
2023-06-09T23:35:34.437Z,35.00
2023-06-09T23:38:35.507Z,34.78
2023-06-09T23:41:37.431Z,34.76
2023-06-09T23:44:38.488Z,35.02
2023-06-09T23:47:39.461Z,35.07
2023-06-09T23:50:40.485Z,35.01
2023-06-09T23:53:42.499Z,35.08
2023-06-09T23:56:43.457Z,35.05
2023-06-09T23:59:44.505Z,34.83
